createdAt,value
2022-10-17T00:01:59.161Z,26.03
2022-10-17T00:04:32.272Z,26.05
2022-10-17T00:07:02.094Z,26.11
2022-10-17T00:09:33.211Z,26.02
2022-10-17T00:12:32.420Z,25.96
2022-10-17T00:15:17.370Z,25.99
2022-10-17T00:17:48.230Z,25.96
2022-10-17T00:20:25.982Z,25.95
2022-10-17T00:22:57.388Z,25.94
2022-10-17T00:25:25.873Z,25.86
2022-10-17T00:27:53.937Z,25.96
2022-10-17T00:30:25.036Z,25.91
2022-10-17T00:33:08.219Z,25.89
2022-10-17T00:35:38.530Z,25.82
2022-10-17T00:38:12.440Z,25.77
2022-10-17T00:40:40.510Z,25.69
2022-10-17T00:43:20.558Z,25.66
2022-10-17T00:45:49.252Z,25.70
2022-10-17T00:48:23.318Z,25.71
2022-10-17T00:50:52.154Z,25.69
2022-10-17T00:53:22.885Z,25.73
2022-10-17T00:55:54.326Z,25.78
2022-10-17T00:58:33.459Z,25.75
2022-10-17T01:01:03.168Z,25.64
2022-10-17T01:03:30.999Z,25.53
2022-10-17T01:05:58.642Z,25.47
2022-10-17T01:08:25.928Z,25.62
2022-10-17T01:11:05.965Z,25.53
2022-10-17T01:13:49.925Z,25.65
2022-10-17T01:16:24.678Z,25.51
2022-10-17T01:19:31.056Z,25.55
2022-10-17T01:22:11.650Z,25.56
2022-10-17T01:24:48.795Z,25.44
2022-10-17T01:27:35.953Z,25.47
2022-10-17T01:30:30.692Z,25.38
2022-10-17T01:33:24.265Z,25.52
2022-10-17T01:36:06.752Z,25.44
2022-10-17T01:39:06.151Z,25.55
2022-10-17T01:41:43.126Z,25.50
2022-10-17T01:44:21.911Z,25.44
2022-10-17T01:47:02.579Z,25.54
2022-10-17T01:49:33.358Z,25.47
2022-10-17T01:52:11.647Z,25.55
2022-10-17T01:54:55.537Z,25.57
2022-10-17T01:57:26.578Z,25.50
2022-10-17T02:00:08.437Z,25.66
2022-10-17T02:02:59.400Z,25.48
2022-10-17T02:05:44.577Z,25.52
2022-10-17T02:08:53.135Z,25.43
2022-10-17T02:11:28.067Z,25.48
2022-10-17T02:14:22.223Z,25.40
2022-10-17T02:17:08.457Z,25.28
2022-10-17T02:20:17.582Z,25.36
2022-10-17T02:23:25.394Z,25.46
2022-10-17T02:26:16.702Z,25.46
2022-10-17T02:28:59.823Z,25.49
2022-10-17T02:31:44.942Z,25.43
2022-10-17T02:34:54.401Z,25.25
2022-10-17T02:37:28.524Z,25.25
2022-10-17T02:40:10.055Z,25.39
2022-10-17T02:42:48.716Z,25.45
2022-10-17T02:45:36.809Z,25.48
2022-10-17T02:49:03.549Z,25.55
2022-10-17T02:52:06.129Z,25.56
2022-10-17T02:54:55.457Z,25.52
2022-10-17T02:58:15.113Z,25.56
2022-10-17T03:00:46.211Z,25.58
2022-10-17T03:03:26.175Z,25.54
2022-10-17T03:05:54.214Z,25.47
2022-10-17T03:08:25.164Z,25.26
2022-10-17T03:10:52.545Z,25.37
2022-10-17T03:13:21.385Z,25.31
2022-10-17T03:15:48.687Z,25.41
2022-10-17T03:18:16.215Z,25.33
2022-10-17T03:20:44.597Z,25.36
2022-10-17T03:23:11.880Z,25.36
2022-10-17T03:25:40.251Z,25.42
2022-10-17T03:28:07.497Z,25.41
2022-10-17T03:30:35.158Z,25.34
2022-10-17T03:33:02.620Z,25.44
2022-10-17T03:35:30.594Z,25.35
2022-10-17T03:37:59.023Z,25.30
2022-10-17T03:40:28.040Z,25.36
2022-10-17T03:42:55.175Z,25.39
2022-10-17T03:45:22.448Z,25.40
2022-10-17T03:47:49.892Z,25.29
2022-10-17T03:50:17.233Z,25.36
2022-10-17T03:52:48.604Z,25.31
2022-10-17T03:55:16.670Z,25.33
2022-10-17T03:57:45.518Z,25.22
2022-10-17T04:00:23.642Z,25.09
2022-10-17T04:03:17.119Z,25.09
2022-10-17T04:05:54.698Z,24.97
2022-10-17T04:08:29.367Z,25.07
2022-10-17T04:11:34.877Z,25.01
2022-10-17T04:14:14.246Z,25.20
2022-10-17T04:17:04.270Z,25.03
2022-10-17T04:19:49.567Z,25.13
2022-10-17T04:22:23.023Z,24.98
2022-10-17T04:24:53.978Z,25.15
2022-10-17T04:27:39.745Z,25.20
2022-10-17T04:30:52.139Z,25.19
2022-10-17T04:33:42.918Z,25.31
2022-10-17T04:36:19.135Z,25.27
2022-10-17T04:41:46.553Z,25.32
2022-10-17T04:44:22.105Z,25.33
2022-10-17T04:47:09.274Z,25.31
2022-10-17T04:49:42.694Z,25.30
2022-10-17T04:52:26.866Z,25.33
2022-10-17T04:55:11.833Z,25.37
2022-10-17T04:57:56.687Z,25.24
2022-10-17T05:00:32.827Z,25.22
2022-10-17T05:03:38.139Z,25.20
2022-10-17T05:06:16.320Z,25.20
2022-10-17T05:09:00.605Z,25.14
2022-10-17T05:11:34.307Z,25.13
2022-10-17T05:14:09.101Z,25.13
2022-10-17T05:16:51.955Z,25.11
2022-10-17T05:19:31.202Z,25.08
2022-10-17T05:22:06.481Z,25.14
2022-10-17T05:24:46.613Z,25.12
2022-10-17T05:27:28.377Z,25.10
2022-10-17T05:30:07.313Z,25.17
2022-10-17T05:32:45.467Z,25.16
2022-10-17T05:35:22.324Z,25.04
2022-10-17T05:38:02.360Z,25.03
2022-10-17T05:40:42.901Z,25.11
2022-10-17T05:43:16.611Z,24.95
2022-10-17T05:45:59.631Z,25.05
2022-10-17T05:48:30.878Z,24.98
2022-10-17T05:51:17.377Z,25.06
2022-10-17T05:53:45.505Z,25.04
2022-10-17T05:56:20.941Z,25.06
2022-10-17T05:58:52.371Z,25.03
2022-10-17T06:01:46.267Z,25.00
2022-10-17T06:04:14.024Z,24.96
2022-10-17T06:06:41.917Z,25.05
2022-10-17T06:09:14.071Z,25.04
2022-10-17T06:11:48.293Z,25.04
2022-10-17T06:14:17.275Z,25.12
2022-10-17T06:16:45.336Z,24.98
2022-10-17T06:19:13.473Z,24.93
2022-10-17T06:21:44.103Z,25.00
2022-10-17T06:24:19.672Z,25.07
2022-10-17T06:26:48.330Z,25.10
2022-10-17T06:29:16.695Z,25.13
2022-10-17T06:31:51.137Z,25.02
2022-10-17T06:34:20.484Z,24.99
2022-10-17T06:36:48.993Z,25.05
2022-10-17T06:39:22.051Z,25.01
2022-10-17T06:42:02.609Z,25.10
2022-10-17T06:44:55.055Z,25.14
2022-10-17T06:47:45.193Z,25.28
2022-10-17T06:50:36.526Z,25.34
2022-10-17T06:53:18.102Z,25.39
2022-10-17T06:56:08.245Z,25.30
2022-10-17T06:58:56.276Z,25.37
2022-10-17T07:01:34.913Z,25.42
2022-10-17T07:04:08.266Z,25.47
2022-10-17T07:06:36.309Z,25.50
2022-10-17T07:09:13.801Z,25.52
2022-10-17T07:11:41.617Z,25.56
2022-10-17T07:14:11.192Z,25.63
2022-10-17T07:16:39.353Z,25.69
2022-10-17T07:19:19.635Z,25.77
2022-10-17T07:21:50.600Z,25.83
2022-10-17T07:24:20.992Z,26.01
2022-10-17T07:26:54.665Z,26.16
2022-10-17T07:29:22.493Z,26.28
2022-10-17T07:32:09.002Z,26.22
2022-10-17T07:34:39.590Z,26.35
2022-10-17T07:37:10.465Z,26.31
2022-10-17T07:39:40.564Z,26.26
2022-10-17T07:42:08.499Z,26.25
2022-10-17T07:44:38.463Z,26.26
2022-10-17T07:47:06.945Z,26.22
2022-10-17T07:49:43.306Z,26.27
2022-10-17T07:52:12.690Z,26.34
2022-10-17T07:54:40.780Z,26.34
2022-10-17T07:57:09.538Z,26.37
2022-10-17T07:59:38.763Z,26.30
2022-10-17T08:02:08.678Z,26.29
2022-10-17T08:04:37.027Z,26.30
2022-10-17T08:07:19.594Z,26.25
2022-10-17T08:09:50.009Z,26.30
2022-10-17T08:12:18.533Z,26.27
2022-10-17T08:14:47.471Z,26.30
2022-10-17T08:17:16.369Z,26.33
2022-10-17T08:19:45.951Z,26.45
2022-10-17T08:22:14.197Z,26.43
2022-10-17T08:24:43.549Z,26.36
2022-10-17T08:27:14.283Z,26.57
2022-10-17T08:29:43.923Z,26.49
2022-10-17T08:32:12.506Z,26.50
2022-10-17T08:34:40.696Z,26.64
2022-10-17T08:37:08.445Z,26.54
2022-10-17T08:39:36.242Z,26.77
2022-10-17T08:42:06.606Z,26.76
2022-10-17T08:44:52.535Z,26.74
2022-10-17T08:47:29.994Z,26.91
2022-10-17T08:50:04.102Z,26.76
2022-10-17T08:52:43.328Z,26.87
2022-10-17T08:55:23.169Z,26.93
2022-10-17T08:57:53.450Z,26.98
2022-10-17T09:00:22.644Z,26.85
2022-10-17T09:03:08.429Z,26.84
2022-10-17T09:05:54.637Z,26.70
2022-10-17T09:08:47.933Z,26.71
2022-10-17T09:11:52.713Z,26.76
2022-10-17T09:14:32.210Z,26.92
2022-10-17T09:17:21.941Z,27.15
2022-10-17T09:20:10.958Z,27.34
2022-10-17T09:22:49.704Z,27.67
2022-10-17T09:25:20.195Z,28.03
2022-10-17T09:27:52.159Z,28.26
2022-10-17T09:30:50.379Z,28.22
2022-10-17T09:33:54.008Z,28.42
2022-10-17T09:36:39.932Z,28.25
2022-10-17T09:39:18.565Z,28.43
2022-10-17T09:41:54.155Z,28.23
2022-10-17T09:44:31.541Z,28.27
2022-10-17T09:47:31.895Z,28.23
2022-10-17T09:50:05.674Z,28.41
2022-10-17T09:52:43.614Z,28.85
2022-10-17T09:55:38.685Z,28.71
2022-10-17T09:58:09.517Z,28.59
2022-10-17T10:00:45.564Z,28.57
2022-10-17T10:03:21.020Z,28.79
2022-10-17T10:06:01.347Z,28.86
2022-10-17T10:08:53.156Z,28.93
2022-10-17T10:11:27.604Z,28.76
2022-10-17T10:14:16.249Z,28.81
2022-10-17T10:16:51.116Z,28.45
2022-10-17T10:19:39.029Z,28.38
2022-10-17T10:22:24.309Z,28.44
2022-10-17T10:25:20.596Z,28.40
2022-10-17T10:27:49.454Z,28.65
2022-10-17T10:30:36.133Z,28.76
2022-10-17T10:33:09.516Z,28.71
2022-10-17T10:35:43.714Z,28.91
2022-10-17T10:38:18.397Z,29.10
2022-10-17T10:40:53.031Z,29.61
2022-10-17T10:43:41.645Z,29.53
2022-10-17T10:46:18.337Z,29.73
2022-10-17T10:49:00.835Z,29.72
2022-10-17T10:51:33.213Z,30.20
2022-10-17T10:54:16.241Z,30.52
2022-10-17T10:56:53.631Z,30.61
2022-10-17T10:59:38.699Z,30.58
2022-10-17T11:02:28.437Z,30.97
2022-10-17T11:05:14.254Z,30.99
2022-10-17T11:07:59.737Z,31.37
2022-10-17T11:10:51.213Z,31.34
2022-10-17T11:13:30.913Z,31.42
2022-10-17T11:16:19.361Z,31.34
2022-10-17T11:19:03.718Z,31.97
2022-10-17T11:21:38.201Z,32.20
2022-10-17T11:24:09.478Z,32.13
2022-10-17T11:27:15.559Z,32.39
2022-10-17T11:29:47.611Z,32.56
2022-10-17T11:32:33.410Z,32.35
2022-10-17T11:35:39.559Z,32.80
2022-10-17T11:38:33.032Z,32.57
2022-10-17T11:41:08.052Z,32.15
2022-10-17T11:43:56.554Z,32.46
2022-10-17T11:46:33.779Z,32.66
2022-10-17T11:49:20.663Z,32.95
2022-10-17T11:52:02.953Z,32.92
2022-10-17T11:54:49.634Z,33.19
2022-10-17T11:57:43.537Z,33.09
2022-10-17T12:00:17.829Z,33.37
2022-10-17T12:03:31.356Z,33.49
2022-10-17T12:06:16.425Z,33.52
2022-10-17T12:09:09.172Z,33.30
2022-10-17T12:12:09.268Z,33.38
2022-10-17T12:14:47.091Z,33.46
2022-10-17T12:17:35.703Z,33.76
2022-10-17T12:20:37.100Z,33.92
2022-10-17T12:23:18.183Z,34.06
2022-10-17T12:25:51.864Z,33.73
2022-10-17T12:28:44.887Z,33.07
2022-10-17T12:31:23.911Z,33.14
2022-10-17T12:33:57.622Z,32.95
2022-10-17T12:36:32.448Z,32.61
2022-10-17T12:39:09.547Z,32.94
2022-10-17T12:41:41.347Z,32.83
2022-10-17T12:44:15.185Z,32.54
2022-10-17T12:47:11.220Z,32.25
2022-10-17T12:49:46.046Z,32.15
2022-10-17T12:52:27.462Z,32.13
2022-10-17T12:55:13.486Z,31.95
2022-10-17T12:57:50.481Z,31.87
2022-10-17T13:01:19.104Z,31.73
2022-10-17T13:03:49.205Z,31.41
2022-10-17T13:06:22.341Z,31.54
2022-10-17T13:09:02.429Z,31.48
2022-10-17T13:11:37.050Z,31.40
2022-10-17T13:14:13.381Z,30.88
2022-10-17T13:16:58.595Z,30.67
2022-10-17T13:19:32.674Z,30.86
2022-10-17T13:22:06.903Z,30.52
2022-10-17T13:24:44.073Z,30.47
2022-10-17T13:27:31.782Z,30.25
2022-10-17T13:30:21.036Z,30.46
2022-10-17T13:32:52.273Z,30.63
2022-10-17T13:35:55.370Z,30.72
2022-10-17T13:38:26.196Z,30.54
2022-10-17T13:41:01.680Z,30.61
2022-10-17T13:43:39.561Z,30.61
2022-10-17T13:46:32.600Z,30.65
2022-10-17T13:49:03.642Z,30.42
2022-10-17T13:51:34.594Z,30.14
2022-10-17T13:54:02.563Z,30.35
2022-10-17T13:56:32.615Z,30.45
2022-10-17T13:59:22.246Z,30.19
2022-10-17T14:01:53.244Z,30.16
2022-10-17T14:04:22.313Z,30.54
2022-10-17T14:06:52.224Z,30.55
2022-10-17T14:09:27.840Z,30.97
2022-10-17T14:12:11.991Z,31.16
2022-10-17T14:17:39.277Z,31.70
2022-10-17T14:25:51.296Z,31.74
2022-10-17T14:28:23.943Z,31.42
2022-10-17T14:30:57.574Z,31.90
2022-10-17T14:33:34.625Z,31.86
2022-10-17T14:36:07.637Z,31.80
2022-10-17T14:38:39.689Z,31.49
2022-10-17T14:44:16.768Z,31.65
2022-10-17T14:46:50.784Z,31.46
2022-10-17T14:49:33.280Z,31.42
2022-10-17T14:52:27.924Z,31.24
2022-10-17T14:54:57.127Z,31.32
2022-10-17T14:57:29.468Z,31.07
2022-10-17T14:59:59.054Z,31.16
2022-10-17T15:02:29.005Z,31.00
2022-10-17T15:04:56.858Z,31.00
2022-10-17T15:07:24.670Z,30.96
2022-10-17T15:09:54.139Z,31.12
2022-10-17T15:12:28.588Z,31.17
2022-10-17T15:14:57.012Z,30.99
2022-10-17T15:17:30.613Z,30.81
2022-10-17T15:19:59.958Z,30.80
2022-10-17T15:22:30.985Z,30.62
2022-10-17T15:24:59.224Z,30.49
2022-10-17T15:27:34.779Z,30.25
2022-10-17T15:30:05.714Z,30.35
2022-10-17T15:32:33.801Z,30.26
2022-10-17T15:35:01.472Z,30.15
2022-10-17T15:37:37.737Z,30.07
2022-10-17T15:40:07.192Z,30.16
2022-10-17T15:42:35.378Z,30.15
2022-10-17T15:45:04.524Z,30.14
2022-10-17T15:47:34.679Z,30.07
2022-10-17T15:50:07.042Z,29.93
2022-10-17T15:52:38.745Z,29.88
2022-10-17T15:55:09.616Z,29.61
2022-10-17T15:57:45.643Z,29.45
2022-10-17T16:00:20.702Z,29.43
2022-10-17T16:02:50.310Z,29.39
2022-10-17T16:05:26.320Z,29.36
2022-10-17T16:07:55.431Z,29.23
2022-10-17T16:10:24.718Z,29.19
2022-10-17T16:12:53.502Z,29.16
2022-10-17T16:15:25.450Z,29.05
2022-10-17T16:17:54.827Z,29.08
2022-10-17T16:20:27.299Z,28.99
2022-10-17T16:23:01.353Z,29.00
2022-10-17T16:25:30.571Z,29.00
2022-10-17T16:28:00.669Z,28.86
2022-10-17T16:30:34.174Z,28.90
2022-10-17T16:33:07.003Z,28.74
2022-10-17T16:35:37.622Z,28.88
2022-10-17T16:38:07.756Z,28.81
2022-10-17T16:40:41.869Z,28.65
2022-10-17T16:43:18.566Z,28.51
2022-10-17T16:45:47.129Z,28.64
2022-10-17T16:48:21.344Z,28.61
2022-10-17T16:50:51.912Z,28.44
2022-10-17T16:53:23.177Z,28.39
2022-10-17T16:56:06.340Z,28.27
2022-10-17T16:58:35.028Z,28.26
2022-10-17T17:01:08.769Z,28.15
2022-10-17T17:03:39.915Z,28.02
2022-10-17T17:06:10.197Z,28.11
2022-10-17T17:08:38.027Z,28.20
2022-10-17T17:11:11.130Z,28.18
2022-10-17T17:13:39.125Z,28.22
2022-10-17T17:16:14.533Z,27.90
2022-10-17T17:18:43.917Z,28.11
2022-10-17T17:24:10.625Z,28.06
2022-10-17T17:26:39.460Z,27.98
2022-10-17T17:29:07.809Z,28.01
2022-10-17T17:31:36.851Z,28.02
2022-10-17T17:34:08.055Z,28.01
2022-10-17T17:36:37.962Z,27.98
2022-10-17T17:39:11.400Z,27.93
2022-10-17T17:41:40.200Z,27.94
2022-10-17T17:44:15.747Z,27.82
2022-10-17T17:46:46.259Z,27.74
2022-10-17T17:49:15.654Z,27.78
2022-10-17T17:51:47.001Z,27.82
2022-10-17T17:54:15.359Z,27.71
2022-10-17T17:56:44.231Z,27.75
2022-10-17T17:59:14.069Z,27.65
2022-10-17T18:01:44.053Z,27.58
2022-10-17T18:04:17.166Z,27.67
2022-10-17T18:06:46.284Z,27.67
2022-10-17T18:09:17.478Z,27.67
2022-10-17T18:11:45.549Z,27.64
2022-10-17T18:14:19.827Z,27.62
2022-10-17T18:16:48.114Z,27.61
2022-10-17T18:19:16.349Z,27.57
2022-10-17T18:21:46.998Z,27.46
2022-10-17T18:24:23.475Z,27.58
2022-10-17T18:27:03.767Z,27.54
2022-10-17T18:29:42.501Z,27.57
2022-10-17T18:32:17.468Z,27.50
2022-10-17T18:35:05.670Z,27.48
2022-10-17T18:37:45.856Z,27.47
2022-10-17T18:40:17.430Z,27.44
2022-10-17T18:42:51.868Z,27.54
2022-10-17T18:48:13.042Z,27.34
2022-10-17T18:50:53.086Z,27.43
2022-10-17T18:53:54.601Z,27.18
2022-10-17T18:56:28.864Z,27.33
2022-10-17T18:58:59.065Z,27.28
2022-10-17T19:01:37.884Z,27.23
2022-10-17T19:04:14.630Z,27.25
2022-10-17T19:06:48.438Z,27.17
2022-10-17T19:09:17.220Z,27.19
2022-10-17T19:11:59.322Z,27.27
2022-10-17T19:14:41.478Z,27.22
2022-10-17T19:17:16.211Z,27.27
2022-10-17T19:19:59.207Z,27.11
2022-10-17T19:22:28.864Z,27.21
2022-10-17T19:28:22.943Z,27.18
2022-10-17T19:30:54.548Z,27.01
2022-10-17T19:33:22.435Z,27.22
2022-10-17T19:35:59.890Z,27.15
2022-10-17T19:38:35.585Z,27.19
2022-10-17T19:41:18.229Z,27.12
2022-10-17T19:43:47.045Z,27.05
2022-10-17T19:46:21.383Z,27.15
2022-10-17T19:48:50.242Z,27.24
2022-10-17T19:51:21.490Z,27.26
2022-10-17T19:53:50.796Z,27.33
2022-10-17T19:56:26.448Z,27.37
2022-10-17T19:59:00.159Z,27.31
2022-10-17T20:01:37.331Z,27.35
2022-10-17T20:04:12.093Z,27.25
2022-10-17T20:06:44.900Z,27.25
2022-10-17T20:09:18.295Z,27.26
2022-10-17T20:11:49.827Z,27.29
2022-10-17T20:14:22.514Z,27.20
2022-10-17T20:16:53.361Z,27.33
2022-10-17T20:19:28.293Z,27.32
2022-10-17T20:21:57.857Z,27.33
2022-10-17T20:24:29.488Z,27.32
2022-10-17T20:26:58.023Z,27.28
2022-10-17T20:29:32.199Z,27.27
2022-10-17T20:34:51.694Z,27.22
2022-10-17T20:37:23.398Z,27.18
2022-10-17T20:40:16.491Z,27.22
2022-10-17T20:42:52.144Z,27.21
2022-10-17T20:45:43.631Z,27.11
2022-10-17T20:48:21.530Z,27.18
2022-10-17T20:51:01.810Z,27.15
2022-10-17T20:53:49.042Z,27.16
2022-10-17T20:59:23.926Z,27.06
2022-10-17T21:02:11.407Z,27.09
2022-10-17T21:04:54.302Z,27.12
2022-10-17T21:07:27.947Z,27.13
2022-10-17T21:10:30.709Z,27.11
2022-10-17T21:13:09.020Z,27.13
2022-10-17T21:16:00.102Z,27.14
2022-10-17T21:18:35.613Z,27.03
2022-10-17T21:21:36.799Z,26.95
2022-10-17T21:24:25.291Z,26.98
2022-10-17T21:26:58.278Z,27.01
2022-10-17T21:33:04.897Z,26.89
2022-10-17T21:35:56.949Z,26.90
2022-10-17T21:38:41.771Z,26.97
2022-10-17T21:41:19.491Z,26.95
2022-10-17T21:44:05.256Z,26.92
2022-10-17T21:50:08.883Z,26.82
2022-10-17T21:55:42.394Z,26.93
2022-10-17T21:58:26.138Z,26.89
2022-10-17T22:07:51.081Z,26.85
2022-10-17T22:13:39.798Z,26.83
2022-10-17T22:16:21.248Z,26.85
2022-10-17T22:19:06.492Z,26.89
2022-10-17T22:25:14.055Z,26.90
2022-10-17T22:27:51.778Z,26.93
2022-10-17T22:33:13.708Z,26.87
2022-10-17T22:36:19.889Z,26.72
2022-10-17T22:39:04.697Z,26.82
2022-10-17T22:41:49.725Z,26.76
2022-10-17T22:44:43.441Z,26.76
2022-10-17T22:47:23.600Z,26.70
2022-10-17T22:49:52.525Z,26.75
2022-10-17T22:52:22.820Z,26.78
2022-10-17T22:54:58.058Z,26.76
2022-10-17T22:57:39.249Z,26.83
2022-10-17T23:00:13.160Z,26.78
2022-10-17T23:02:41.983Z,26.79
2022-10-17T23:05:15.162Z,26.73
2022-10-17T23:07:48.796Z,26.63
2022-10-17T23:10:20.436Z,26.64
2022-10-17T23:12:51.573Z,26.63
2022-10-17T23:15:19.552Z,26.61
2022-10-17T23:17:48.646Z,26.68
2022-10-17T23:20:18.707Z,26.62
2022-10-17T23:22:47.304Z,26.65
2022-10-17T23:25:15.567Z,26.64
2022-10-17T23:27:44.248Z,26.67
2022-10-17T23:30:14.823Z,26.68
2022-10-17T23:32:43.093Z,26.60
2022-10-17T23:35:13.837Z,26.61
2022-10-17T23:37:41.677Z,26.60
2022-10-17T23:40:12.978Z,26.61
2022-10-17T23:42:40.832Z,26.57
2022-10-17T23:45:09.121Z,26.57
2022-10-17T23:47:37.157Z,26.55
2022-10-17T23:50:11.918Z,26.44
2022-10-17T23:52:40.216Z,26.45
2022-10-17T23:55:11.974Z,26.47
2022-10-17T23:57:41.523Z,26.31
